sensor_id;sensor_type;location;lat;lon;timestamp;P1;durP1;ratioP1;P2;durP2;ratioP2
1829;SDS011;914;48.118;11.600;2023-05-10T00:00:07;1.40;;;1.30;;
1829;SDS011;914;48.118;11.600;2023-05-10T00:02:34;2.23;;;1.00;;
1829;SDS011;914;48.118;11.600;2023-05-10T00:04:59;1.10;;;1.00;;
1829;SDS011;914;48.118;11.600;2023-05-10T00:07:26;1.23;;;1.00;;
1829;SDS011;914;48.118;11.600;2023-05-10T00:09:51;3.43;;;1.00;;
1829;SDS011;914;48.118;11.600;2023-05-10T00:12:17;0.90;;;0.83;;
1829;SDS011;914;48.118;11.600;2023-05-10T00:14:43;0.87;;;0.87;;
1829;SDS011;914;48.118;11.600;2023-05-10T00:17:08;3.87;;;1.20;;
1829;SDS011;914;48.118;11.600;2023-05-10T00:19:34;1.43;;;1.00;;
1829;SDS011;914;48.118;11.600;2023-05-10T00:22:00;1.00;;;1.00;;
1829;SDS011;914;48.118;11.600;2023-05-10T00:24:25;4.43;;;1.00;;
1829;SDS011;914;48.118;11.600;2023-05-10T00:26:51;1.90;;;1.30;;
1829;SDS011;914;48.118;11.600;2023-05-10T00:29:16;1.50;;;0.97;;
1829;SDS011;914;48.118;11.600;2023-05-10T00:31:42;1.30;;;1.10;;
1829;SDS011;914;48.118;11.600;2023-05-10T00:34:08;1.53;;;1.10;;
1829;SDS011;914;48.118;11.600;2023-05-10T00:36:33;1.20;;;1.10;;
1829;SDS011;914;48.118;11.600;2023-05-10T00:38:59;1.00;;;0.90;;
1829;SDS011;914;48.118;11.600;2023-05-10T00:41:24;1.53;;;1.00;;
1829;SDS011;914;48.118;11.600;2023-05-10T00:43:50;1.53;;;0.90;;
1829;SDS011;914;48.118;11.600;2023-05-10T00:46:16;1.63;;;1.03;;
1829;SDS011;914;48.118;11.600;2023-05-10T00:48:42;1.10;;;1.00;;
1829;SDS011;914;48.118;11.600;2023-05-10T00:51:09;2.27;;;1.00;;
1829;SDS011;914;48.118;11.600;2023-05-10T00:53:35;0.90;;;0.90;;
1829;SDS011;914;48.118;11.600;2023-05-10T00:56:01;0.83;;;0.83;;
1829;SDS011;914;48.118;11.600;2023-05-10T00:58:28;0.80;;;0.80;;
1829;SDS011;914;48.118;11.600;2023-05-10T01:00:55;0.80;;;0.80;;
1829;SDS011;914;48.118;11.600;2023-05-10T01:03:22;0.73;;;0.70;;
1829;SDS011;914;48.118;11.600;2023-05-10T01:05:48;0.90;;;0.90;;
1829;SDS011;914;48.118;11.600;2023-05-10T01:08:14;0.93;;;0.93;;
1829;SDS011;914;48.118;11.600;2023-05-10T01:10:40;0.97;;;0.80;;
1829;SDS011;914;48.118;11.600;2023-05-10T01:13:07;0.93;;;0.80;;
1829;SDS011;914;48.118;11.600;2023-05-10T01:15:33;0.70;;;0.70;;
1829;SDS011;914;48.118;11.600;2023-05-10T01:17:59;1.13;;;0.83;;
1829;SDS011;914;48.118;11.600;2023-05-10T01:20:25;0.60;;;0.60;;
1829;SDS011;914;48.118;11.600;2023-05-10T01:33:55;0.70;;;0.70;;
1829;SDS011;914;48.118;11.600;2023-05-10T01:36:35;0.50;;;0.50;;
1829;SDS011;914;48.118;11.600;2023-05-10T01:39:14;0.60;;;0.60;;
1829;SDS011;914;48.118;11.600;2023-05-10T01:44:34;1.67;;;0.77;;
1829;SDS011;914;48.118;11.600;2023-05-10T01:47:05;1.37;;;0.67;;
1829;SDS011;914;48.118;11.600;2023-05-10T01:49:40;0.90;;;0.67;;
1829;SDS011;914;48.118;11.600;2023-05-10T01:52:12;0.50;;;0.50;;
1829;SDS011;914;48.118;11.600;2023-05-10T01:57:43;0.60;;;0.60;;
1829;SDS011;914;48.118;11.600;2023-05-10T02:00:11;1.23;;;0.70;;
1829;SDS011;914;48.118;11.600;2023-05-10T02:02:39;1.23;;;0.90;;
1829;SDS011;914;48.118;11.600;2023-05-10T02:05:09;0.67;;;0.67;;
1829;SDS011;914;48.118;11.600;2023-05-10T02:07:38;0.80;;;0.80;;
1829;SDS011;914;48.118;11.600;2023-05-10T02:10:05;2.30;;;0.80;;
1829;SDS011;914;48.118;11.600;2023-05-10T02:12:36;0.60;;;0.60;;
1829;SDS011;914;48.118;11.600;2023-05-10T02:15:06;0.70;;;0.70;;
1829;SDS011;914;48.118;11.600;2023-05-10T02:17:33;1.60;;;0.80;;
1829;SDS011;914;48.118;11.600;2023-05-10T02:20:01;1.47;;;0.70;;
1829;SDS011;914;48.118;11.600;2023-05-10T02:22:28;1.43;;;0.60;;
1829;SDS011;914;48.118;11.600;2023-05-10T02:24:55;1.27;;;0.70;;
1829;SDS011;914;48.118;11.600;2023-05-10T02:27:23;3.67;;;0.70;;
1829;SDS011;914;48.118;11.600;2023-05-10T02:29:49;2.27;;;0.73;;
1829;SDS011;914;48.118;11.600;2023-05-10T02:32:16;0.80;;;0.60;;
1829;SDS011;914;48.118;11.600;2023-05-10T02:34:43;0.70;;;0.70;;
1829;SDS011;914;48.118;11.600;2023-05-10T02:37:11;1.03;;;0.60;;
1829;SDS011;914;48.118;11.600;2023-05-10T02:39:39;0.60;;;0.60;;
1829;SDS011;914;48.118;11.600;2023-05-10T02:42:10;1.40;;;0.60;;
1829;SDS011;914;48.118;11.600;2023-05-10T02:44:41;0.60;;;0.60;;
1829;SDS011;914;48.118;11.600;2023-05-10T02:47:08;0.83;;;0.80;;
1829;SDS011;914;48.118;11.600;2023-05-10T02:49:33;0.90;;;0.73;;
1829;SDS011;914;48.118;11.600;2023-05-10T02:52:00;2.10;;;0.90;;
1829;SDS011;914;48.118;11.600;2023-05-10T02:54:30;0.90;;;0.90;;
1829;SDS011;914;48.118;11.600;2023-05-10T02:57:03;1.13;;;0.70;;
1829;SDS011;914;48.118;11.600;2023-05-10T02:59:30;3.13;;;0.63;;
1829;SDS011;914;48.118;11.600;2023-05-10T03:01:57;0.70;;;0.70;;
1829;SDS011;914;48.118;11.600;2023-05-10T03:04:25;0.53;;;0.53;;
1829;SDS011;914;48.118;11.600;2023-05-10T03:06:51;0.77;;;0.67;;
1829;SDS011;914;48.118;11.600;2023-05-10T03:09:17;0.53;;;0.53;;
1829;SDS011;914;48.118;11.600;2023-05-10T03:17:22;0.87;;;0.70;;
1829;SDS011;914;48.118;11.600;2023-05-10T03:19:55;0.53;;;0.53;;
1829;SDS011;914;48.118;11.600;2023-05-10T03:22:30;0.67;;;0.67;;
1829;SDS011;914;48.118;11.600;2023-05-10T03:24:59;0.40;;;0.40;;
1829;SDS011;914;48.118;11.600;2023-05-10T03:27:30;0.60;;;0.60;;
1829;SDS011;914;48.118;11.600;2023-05-10T03:29:57;0.60;;;0.60;;
1829;SDS011;914;48.118;11.600;2023-05-10T03:32:23;0.93;;;0.77;;
1829;SDS011;914;48.118;11.600;2023-05-10T03:34:49;0.50;;;0.50;;
1829;SDS011;914;48.118;11.600;2023-05-10T03:37:15;0.60;;;0.60;;
1829;SDS011;914;48.118;11.600;2023-05-10T03:39:40;0.60;;;0.60;;
1829;SDS011;914;48.118;11.600;2023-05-10T03:42:06;0.50;;;0.50;;
1829;SDS011;914;48.118;11.600;2023-05-10T03:44:32;0.50;;;0.50;;
1829;SDS011;914;48.118;11.600;2023-05-10T03:47:00;1.13;;;0.60;;
1829;SDS011;914;48.118;11.600;2023-05-10T03:49:26;0.60;;;0.60;;
1829;SDS011;914;48.118;11.600;2023-05-10T03:51:52;0.70;;;0.70;;
1829;SDS011;914;48.118;11.600;2023-05-10T03:54:17;0.53;;;0.40;;
1829;SDS011;914;48.118;11.600;2023-05-10T03:56:43;0.53;;;0.53;;
1829;SDS011;914;48.118;11.600;2023-05-10T03:59:08;1.47;;;0.50;;
1829;SDS011;914;48.118;11.600;2023-05-10T04:01:34;1.70;;;0.60;;
1829;SDS011;914;48.118;11.600;2023-05-10T04:04:00;0.83;;;0.60;;
1829;SDS011;914;48.118;11.600;2023-05-10T04:06:25;0.50;;;0.50;;
1829;SDS011;914;48.118;11.600;2023-05-10T04:08:51;1.77;;;0.70;;
1829;SDS011;914;48.118;11.600;2023-05-10T04:11:17;0.77;;;0.60;;
1829;SDS011;914;48.118;11.600;2023-05-10T04:13:42;1.43;;;0.60;;
1829;SDS011;914;48.118;11.600;2023-05-10T04:16:08;3.77;;;0.60;;
1829;SDS011;914;48.118;11.600;2023-05-10T04:18:34;0.80;;;0.80;;
1829;SDS011;914;48.118;11.600;2023-05-10T04:21:00;1.20;;;0.80;;
1829;SDS011;914;48.118;11.600;2023-05-10T04:23:26;1.87;;;0.70;;
1829;SDS011;914;48.118;11.600;2023-05-10T04:25:52;2.63;;;0.80;;
1829;SDS011;914;48.118;11.600;2023-05-10T04:28:17;1.60;;;0.60;;
1829;SDS011;914;48.118;11.600;2023-05-10T04:30:43;1.80;;;0.60;;
1829;SDS011;914;48.118;11.600;2023-05-10T04:33:09;0.50;;;0.50;;
1829;SDS011;914;48.118;11.600;2023-05-10T04:35:34;0.93;;;0.47;;
1829;SDS011;914;48.118;11.600;2023-05-10T04:38:00;0.83;;;0.50;;
1829;SDS011;914;48.118;11.600;2023-05-10T04:40:26;0.50;;;0.50;;
1829;SDS011;914;48.118;11.600;2023-05-10T04:42:52;0.70;;;0.60;;
1829;SDS011;914;48.118;11.600;2023-05-10T04:45:17;0.83;;;0.60;;
1829;SDS011;914;48.118;11.600;2023-05-10T04:47:43;0.57;;;0.57;;
1829;SDS011;914;48.118;11.600;2023-05-10T04:50:08;2.87;;;0.97;;
1829;SDS011;914;48.118;11.600;2023-05-10T04:52:34;0.60;;;0.60;;
1829;SDS011;914;48.118;11.600;2023-05-10T04:55:00;0.57;;;0.57;;
1829;SDS011;914;48.118;11.600;2023-05-10T04:57:26;0.73;;;0.63;;
1829;SDS011;914;48.118;11.600;2023-05-10T04:59:51;0.50;;;0.50;;
1829;SDS011;914;48.118;11.600;2023-05-10T05:02:17;0.60;;;0.57;;
1829;SDS011;914;48.118;11.600;2023-05-10T05:04:43;20.13;;;1.47;;
1829;SDS011;914;48.118;11.600;2023-05-10T05:07:08;14.63;;;1.07;;
1829;SDS011;914;48.118;11.600;2023-05-10T05:09:34;0.47;;;0.47;;
1829;SDS011;914;48.118;11.600;2023-05-10T05:12:00;4.80;;;0.63;;
1829;SDS011;914;48.118;11.600;2023-05-10T05:14:26;1.00;;;0.60;;
1829;SDS011;914;48.118;11.600;2023-05-10T05:16:52;1.30;;;0.40;;
1829;SDS011;914;48.118;11.600;2023-05-10T05:19:17;0.87;;;0.60;;
1829;SDS011;914;48.118;11.600;2023-05-10T05:21:43;0.63;;;0.57;;
1829;SDS011;914;48.118;11.600;2023-05-10T05:24:09;8.37;;;0.83;;
1829;SDS011;914;48.118;11.600;2023-05-10T05:26:36;4.70;;;0.70;;
1829;SDS011;914;48.118;11.600;2023-05-10T05:29:01;0.70;;;0.70;;
1829;SDS011;914;48.118;11.600;2023-05-10T05:31:28;2.27;;;0.70;;
1829;SDS011;914;48.118;11.600;2023-05-10T05:33:54;1.00;;;0.60;;
1829;SDS011;914;48.118;11.600;2023-05-10T05:36:20;0.80;;;0.50;;
1829;SDS011;914;48.118;11.600;2023-05-10T05:38:46;0.73;;;0.60;;
1829;SDS011;914;48.118;11.600;2023-05-10T05:41:12;0.53;;;0.53;;
1829;SDS011;914;48.118;11.600;2023-05-10T05:43:37;0.60;;;0.60;;
1829;SDS011;914;48.118;11.600;2023-05-10T05:46:03;0.77;;;0.63;;
1829;SDS011;914;48.118;11.600;2023-05-10T05:48:29;2.13;;;0.70;;
1829;SDS011;914;48.118;11.600;2023-05-10T05:50:56;1.37;;;0.70;;
1829;SDS011;914;48.118;11.600;2023-05-10T05:53:22;3.53;;;0.90;;
1829;SDS011;914;48.118;11.600;2023-05-10T05:55:51;0.80;;;0.67;;
1829;SDS011;914;48.118;11.600;2023-05-10T05:58:18;0.70;;;0.70;;
1829;SDS011;914;48.118;11.600;2023-05-10T06:00:44;0.60;;;0.60;;
1829;SDS011;914;48.118;11.600;2023-05-10T06:03:10;4.37;;;0.80;;
1829;SDS011;914;48.118;11.600;2023-05-10T06:05:39;0.83;;;0.83;;
1829;SDS011;914;48.118;11.600;2023-05-10T06:08:04;1.13;;;0.87;;
1829;SDS011;914;48.118;11.600;2023-05-10T06:10:30;2.43;;;1.30;;
1829;SDS011;914;48.118;11.600;2023-05-10T06:12:55;0.70;;;0.70;;
1829;SDS011;914;48.118;11.600;2023-05-10T06:15:21;0.80;;;0.80;;
1829;SDS011;914;48.118;11.600;2023-05-10T06:17:47;0.80;;;0.80;;
1829;SDS011;914;48.118;11.600;2023-05-10T06:20:14;0.83;;;0.83;;
1829;SDS011;914;48.118;11.600;2023-05-10T06:22:40;0.90;;;0.90;;
1829;SDS011;914;48.118;11.600;2023-05-10T06:25:06;1.20;;;1.00;;
1829;SDS011;914;48.118;11.600;2023-05-10T06:27:32;1.20;;;1.10;;
1829;SDS011;914;48.118;11.600;2023-05-10T06:29:58;1.40;;;0.90;;
1829;SDS011;914;48.118;11.600;2023-05-10T06:32:24;1.20;;;1.10;;
1829;SDS011;914;48.118;11.600;2023-05-10T06:34:50;2.07;;;1.00;;
1829;SDS011;914;48.118;11.600;2023-05-10T06:37:16;2.93;;;1.20;;
1829;SDS011;914;48.118;11.600;2023-05-10T06:39:41;4.00;;;1.30;;
1829;SDS011;914;48.118;11.600;2023-05-10T06:42:07;1.47;;;1.37;;
1829;SDS011;914;48.118;11.600;2023-05-10T06:44:33;3.07;;;1.20;;
1829;SDS011;914;48.118;11.600;2023-05-10T06:46:58;2.67;;;1.20;;
1829;SDS011;914;48.118;11.600;2023-05-10T06:49:24;1.27;;;1.20;;
1829;SDS011;914;48.118;11.600;2023-05-10T06:51:50;1.40;;;1.27;;
1829;SDS011;914;48.118;11.600;2023-05-10T06:54:15;1.30;;;1.10;;
1829;SDS011;914;48.118;11.600;2023-05-10T06:56:41;1.13;;;1.13;;
1829;SDS011;914;48.118;11.600;2023-05-10T06:59:07;1.13;;;1.10;;
1829;SDS011;914;48.118;11.600;2023-05-10T07:01:32;1.30;;;1.20;;
1829;SDS011;914;48.118;11.600;2023-05-10T07:03:58;1.50;;;1.40;;
1829;SDS011;914;48.118;11.600;2023-05-10T07:06:24;1.20;;;1.10;;
1829;SDS011;914;48.118;11.600;2023-05-10T07:08:49;2.27;;;1.20;;
1829;SDS011;914;48.118;11.600;2023-05-10T07:11:15;1.53;;;0.90;;
1829;SDS011;914;48.118;11.600;2023-05-10T07:13:41;2.73;;;1.20;;
1829;SDS011;914;48.118;11.600;2023-05-10T07:16:09;2.30;;;1.30;;
1829;SDS011;914;48.118;11.600;2023-05-10T07:18:35;1.00;;;1.00;;
1829;SDS011;914;48.118;11.600;2023-05-10T07:21:01;1.50;;;1.40;;
1829;SDS011;914;48.118;11.600;2023-05-10T07:23:29;2.97;;;1.30;;
1829;SDS011;914;48.118;11.600;2023-05-10T07:25:55;3.30;;;1.10;;
1829;SDS011;914;48.118;11.600;2023-05-10T07:28:22;1.00;;;1.00;;
1829;SDS011;914;48.118;11.600;2023-05-10T07:30:49;2.23;;;1.00;;
1829;SDS011;914;48.118;11.600;2023-05-10T07:33:15;2.93;;;0.90;;
1829;SDS011;914;48.118;11.600;2023-05-10T07:35:41;1.20;;;1.10;;
1829;SDS011;914;48.118;11.600;2023-05-10T07:38:07;1.50;;;0.93;;
1829;SDS011;914;48.118;11.600;2023-05-10T07:40:33;0.77;;;0.77;;
1829;SDS011;914;48.118;11.600;2023-05-10T07:42:59;0.80;;;0.80;;
1829;SDS011;914;48.118;11.600;2023-05-10T07:45:26;1.53;;;1.00;;
1829;SDS011;914;48.118;11.600;2023-05-10T07:47:52;1.00;;;1.00;;
1829;SDS011;914;48.118;11.600;2023-05-10T07:50:18;3.37;;;1.20;;
1829;SDS011;914;48.118;11.600;2023-05-10T07:52:43;2.67;;;1.03;;
1829;SDS011;914;48.118;11.600;2023-05-10T07:55:09;1.10;;;1.00;;
1829;SDS011;914;48.118;11.600;2023-05-10T07:57:35;6.43;;;1.10;;
1829;SDS011;914;48.118;11.600;2023-05-10T08:00:01;1.13;;;0.80;;
1829;SDS011;914;48.118;11.600;2023-05-10T08:02:27;3.90;;;1.30;;
1829;SDS011;914;48.118;11.600;2023-05-10T08:04:53;1.50;;;1.10;;
1829;SDS011;914;48.118;11.600;2023-05-10T08:07:19;0.70;;;0.70;;
1829;SDS011;914;48.118;11.600;2023-05-10T08:09:44;0.80;;;0.80;;
1829;SDS011;914;48.118;11.600;2023-05-10T08:12:11;0.97;;;0.90;;
1829;SDS011;914;48.118;11.600;2023-05-10T08:14:36;0.90;;;0.90;;
1829;SDS011;914;48.118;11.600;2023-05-10T08:17:02;1.00;;;0.90;;
1829;SDS011;914;48.118;11.600;2023-05-10T08:19:29;1.63;;;1.00;;
1829;SDS011;914;48.118;11.600;2023-05-10T08:21:54;0.93;;;0.80;;
1829;SDS011;914;48.118;11.600;2023-05-10T08:24:21;1.90;;;0.73;;
1829;SDS011;914;48.118;11.600;2023-05-10T08:26:47;0.90;;;0.90;;
1829;SDS011;914;48.118;11.600;2023-05-10T08:29:13;1.47;;;1.00;;
1829;SDS011;914;48.118;11.600;2023-05-10T08:31:39;1.20;;;1.00;;
1829;SDS011;914;48.118;11.600;2023-05-10T08:34:05;0.87;;;0.70;;
1829;SDS011;914;48.118;11.600;2023-05-10T08:36:30;0.70;;;0.70;;
1829;SDS011;914;48.118;11.600;2023-05-10T08:38:57;0.93;;;0.90;;
1829;SDS011;914;48.118;11.600;2023-05-10T08:41:24;1.57;;;0.83;;
1829;SDS011;914;48.118;11.600;2023-05-10T08:43:51;7.73;;;1.00;;
1829;SDS011;914;48.118;11.600;2023-05-10T08:46:18;1.60;;;0.90;;
1829;SDS011;914;48.118;11.600;2023-05-10T08:48:44;0.80;;;0.80;;
1829;SDS011;914;48.118;11.600;2023-05-10T08:51:14;1.77;;;1.00;;
1829;SDS011;914;48.118;11.600;2023-05-10T08:53:45;1.03;;;0.80;;
1829;SDS011;914;48.118;11.600;2023-05-10T08:56:11;1.53;;;0.90;;
1829;SDS011;914;48.118;11.600;2023-05-10T08:58:37;1.47;;;0.93;;
1829;SDS011;914;48.118;11.600;2023-05-10T09:01:07;1.57;;;0.80;;
1829;SDS011;914;48.118;11.600;2023-05-10T09:03:34;2.47;;;0.83;;
1829;SDS011;914;48.118;11.600;2023-05-10T09:06:03;2.20;;;0.80;;
1829;SDS011;914;48.118;11.600;2023-05-10T09:08:30;1.10;;;0.97;;
1829;SDS011;914;48.118;11.600;2023-05-10T09:10:56;0.70;;;0.70;;
1829;SDS011;914;48.118;11.600;2023-05-10T09:13:22;1.67;;;0.80;;
1829;SDS011;914;48.118;11.600;2023-05-10T09:15:49;1.17;;;1.10;;
1829;SDS011;914;48.118;11.600;2023-05-10T09:18:16;2.23;;;0.80;;
1829;SDS011;914;48.118;11.600;2023-05-10T09:20:41;0.70;;;0.70;;
1829;SDS011;914;48.118;11.600;2023-05-10T09:23:07;1.07;;;0.60;;
1829;SDS011;914;48.118;11.600;2023-05-10T09:25:33;0.80;;;0.80;;
1829;SDS011;914;48.118;11.600;2023-05-10T09:27:59;0.73;;;0.70;;
1829;SDS011;914;48.118;11.600;2023-05-10T09:30:26;0.60;;;0.60;;
1829;SDS011;914;48.118;11.600;2023-05-10T09:32:56;2.43;;;0.70;;
1829;SDS011;914;48.118;11.600;2023-05-10T09:35:23;1.00;;;0.90;;
1829;SDS011;914;48.118;11.600;2023-05-10T09:37:53;5.90;;;1.00;;
1829;SDS011;914;48.118;11.600;2023-05-10T09:40:21;26.17;;;2.10;;
1829;SDS011;914;48.118;11.600;2023-05-10T09:43:05;3.03;;;0.70;;
1829;SDS011;914;48.118;11.600;2023-05-10T09:45:32;1.53;;;0.70;;
1829;SDS011;914;48.118;11.600;2023-05-10T09:48:00;0.90;;;0.90;;
1829;SDS011;914;48.118;11.600;2023-05-10T09:50:27;2.10;;;0.80;;
1829;SDS011;914;48.118;11.600;2023-05-10T09:52:55;1.67;;;1.30;;
1829;SDS011;914;48.118;11.600;2023-05-10T09:55:25;0.90;;;0.70;;
1829;SDS011;914;48.118;11.600;2023-05-10T09:58:03;1.33;;;0.97;;
1829;SDS011;914;48.118;11.600;2023-05-10T10:00:34;1.70;;;0.73;;
1829;SDS011;914;48.118;11.600;2023-05-10T10:03:01;0.90;;;0.90;;
1829;SDS011;914;48.118;11.600;2023-05-10T10:05:32;0.90;;;0.90;;
1829;SDS011;914;48.118;11.600;2023-05-10T10:07:59;1.90;;;0.90;;
1829;SDS011;914;48.118;11.600;2023-05-10T10:10:26;0.80;;;0.80;;
1829;SDS011;914;48.118;11.600;2023-05-10T10:12:52;0.97;;;0.80;;
1829;SDS011;914;48.118;11.600;2023-05-10T10:15:22;1.23;;;0.70;;
1829;SDS011;914;48.118;11.600;2023-05-10T10:17:49;9.10;;;1.40;;
1829;SDS011;914;48.118;11.600;2023-05-10T10:20:16;7.40;;;1.00;;
1829;SDS011;914;48.118;11.600;2023-05-10T10:22:42;3.93;;;1.20;;
1829;SDS011;914;48.118;11.600;2023-05-10T10:25:09;1.07;;;0.70;;
1829;SDS011;914;48.118;11.600;2023-05-10T10:35:35;0.77;;;0.70;;
1829;SDS011;914;48.118;11.600;2023-05-10T10:38:01;0.90;;;0.70;;
1829;SDS011;914;48.118;11.600;2023-05-10T10:40:27;1.33;;;0.80;;
1829;SDS011;914;48.118;11.600;2023-05-10T10:42:55;1.02;;;0.90;;
1829;SDS011;914;48.118;11.600;2023-05-10T10:45:22;3.93;;;1.07;;
1829;SDS011;914;48.118;11.600;2023-05-10T10:47:48;2.70;;;0.85;;
1829;SDS011;914;48.118;11.600;2023-05-10T10:50:18;1.73;;;0.90;;
1829;SDS011;914;48.118;11.600;2023-05-10T10:52:44;1.10;;;1.10;;
1829;SDS011;914;48.118;11.600;2023-05-10T10:57:44;2.73;;;1.00;;
1829;SDS011;914;48.118;11.600;2023-05-10T11:03:08;1.70;;;0.93;;
1829;SDS011;914;48.118;11.600;2023-05-10T11:10:38;1.90;;;1.30;;
1829;SDS011;914;48.118;11.600;2023-05-10T11:13:05;2.67;;;1.07;;
1829;SDS011;914;48.118;11.600;2023-05-10T11:15:33;1.20;;;1.10;;
1829;SDS011;914;48.118;11.600;2023-05-10T11:18:16;1.95;;;1.10;;
1829;SDS011;914;48.118;11.600;2023-05-10T11:21:08;2.53;;;1.10;;
1829;SDS011;914;48.118;11.600;2023-05-10T11:26:08;2.33;;;1.10;;
1829;SDS011;914;48.118;11.600;2023-05-10T11:31:09;1.90;;;1.20;;
1829;SDS011;914;48.118;11.600;2023-05-10T11:33:44;2.10;;;1.33;;
1829;SDS011;914;48.118;11.600;2023-05-10T11:36:14;2.20;;;1.20;;
1829;SDS011;914;48.118;11.600;2023-05-10T11:38:41;1.30;;;1.20;;
1829;SDS011;914;48.118;11.600;2023-05-10T11:41:08;1.93;;;1.10;;
1829;SDS011;914;48.118;11.600;2023-05-10T11:43:35;2.93;;;1.23;;
1829;SDS011;914;48.118;11.600;2023-05-10T11:46:03;3.27;;;1.00;;
1829;SDS011;914;48.118;11.600;2023-05-10T11:48:30;1.97;;;1.13;;
1829;SDS011;914;48.118;11.600;2023-05-10T11:50:56;3.33;;;1.50;;
1829;SDS011;914;48.118;11.600;2023-05-10T11:53:23;3.77;;;1.90;;
1829;SDS011;914;48.118;11.600;2023-05-10T11:55:51;3.73;;;1.83;;
1829;SDS011;914;48.118;11.600;2023-05-10T11:58:17;3.07;;;2.07;;
1829;SDS011;914;48.118;11.600;2023-05-10T12:00:44;4.43;;;2.23;;
1829;SDS011;914;48.118;11.600;2023-05-10T12:03:10;4.20;;;1.90;;
1829;SDS011;914;48.118;11.600;2023-05-10T12:05:36;2.63;;;2.10;;
1829;SDS011;914;48.118;11.600;2023-05-10T12:08:10;3.93;;;2.00;;
1829;SDS011;914;48.118;11.600;2023-05-10T12:10:40;1.50;;;1.40;;
1829;SDS011;914;48.118;11.600;2023-05-10T12:13:10;7.30;;;1.77;;
1829;SDS011;914;48.118;11.600;2023-05-10T12:15:37;1.87;;;1.13;;
1829;SDS011;914;48.118;11.600;2023-05-10T12:18:03;2.40;;;1.53;;
1829;SDS011;914;48.118;11.600;2023-05-10T12:20:30;2.33;;;1.40;;
1829;SDS011;914;48.118;11.600;2023-05-10T12:22:57;1.67;;;1.40;;
1829;SDS011;914;48.118;11.600;2023-05-10T12:25:34;10.37;;;1.70;;
1829;SDS011;914;48.118;11.600;2023-05-10T12:28:05;1.70;;;1.60;;
1829;SDS011;914;48.118;11.600;2023-05-10T12:30:33;6.03;;;1.60;;
1829;SDS011;914;48.118;11.600;2023-05-10T12:33:09;2.53;;;1.37;;
1829;SDS011;914;48.118;11.600;2023-05-10T12:35:45;2.47;;;1.30;;
1829;SDS011;914;48.118;11.600;2023-05-10T12:38:29;2.17;;;1.37;;
1829;SDS011;914;48.118;11.600;2023-05-10T12:40:58;4.00;;;1.70;;
1829;SDS011;914;48.118;11.600;2023-05-10T12:43:26;2.77;;;1.50;;
1829;SDS011;914;48.118;11.600;2023-05-10T12:45:52;2.77;;;1.60;;
1829;SDS011;914;48.118;11.600;2023-05-10T12:48:19;2.97;;;1.43;;
1829;SDS011;914;48.118;11.600;2023-05-10T12:50:45;1.60;;;1.50;;
1829;SDS011;914;48.118;11.600;2023-05-10T12:53:10;2.03;;;1.73;;
1829;SDS011;914;48.118;11.600;2023-05-10T12:55:36;3.07;;;1.40;;
1829;SDS011;914;48.118;11.600;2023-05-10T12:58:02;2.07;;;1.43;;
1829;SDS011;914;48.118;11.600;2023-05-10T13:00:27;1.93;;;1.57;;
1829;SDS011;914;48.118;11.600;2023-05-10T13:02:53;1.60;;;1.50;;
1829;SDS011;914;48.118;11.600;2023-05-10T13:05:19;1.53;;;1.40;;
1829;SDS011;914;48.118;11.600;2023-05-10T13:07:45;3.23;;;1.50;;
1829;SDS011;914;48.118;11.600;2023-05-10T13:10:10;2.57;;;1.50;;
1829;SDS011;914;48.118;11.600;2023-05-10T13:12:36;1.73;;;1.30;;
1829;SDS011;914;48.118;11.600;2023-05-10T13:15:02;1.50;;;1.40;;
1829;SDS011;914;48.118;11.600;2023-05-10T13:17:28;4.00;;;1.47;;
1829;SDS011;914;48.118;11.600;2023-05-10T13:19:54;1.80;;;1.40;;
1829;SDS011;914;48.118;11.600;2023-05-10T13:22:20;2.20;;;1.30;;
1829;SDS011;914;48.118;11.600;2023-05-10T13:24:45;2.47;;;1.60;;
1829;SDS011;914;48.118;11.600;2023-05-10T13:27:11;1.40;;;1.30;;
1829;SDS011;914;48.118;11.600;2023-05-10T13:29:37;2.03;;;1.57;;
1829;SDS011;914;48.118;11.600;2023-05-10T13:32:02;1.60;;;1.50;;
1829;SDS011;914;48.118;11.600;2023-05-10T13:34:28;1.77;;;1.40;;
1829;SDS011;914;48.118;11.600;2023-05-10T13:36:53;4.03;;;1.60;;
1829;SDS011;914;48.118;11.600;2023-05-10T13:39:20;1.50;;;1.30;;
1829;SDS011;914;48.118;11.600;2023-05-10T13:41:46;2.90;;;1.70;;
1829;SDS011;914;48.118;11.600;2023-05-10T13:44:12;3.33;;;1.30;;
1829;SDS011;914;48.118;11.600;2023-05-10T13:46:39;1.60;;;1.40;;
1829;SDS011;914;48.118;11.600;2023-05-10T13:49:08;4.33;;;1.30;;
1829;SDS011;914;48.118;11.600;2023-05-10T13:51:34;1.50;;;1.20;;
1829;SDS011;914;48.118;11.600;2023-05-10T13:54:01;1.27;;;1.13;;
1829;SDS011;914;48.118;11.600;2023-05-10T13:56:27;2.60;;;1.40;;
1829;SDS011;914;48.118;11.600;2023-05-10T13:58:53;0.97;;;0.97;;
1829;SDS011;914;48.118;11.600;2023-05-10T14:01:18;2.83;;;1.30;;
1829;SDS011;914;48.118;11.600;2023-05-10T14:03:44;2.33;;;1.00;;
1829;SDS011;914;48.118;11.600;2023-05-10T14:06:10;2.60;;;1.30;;
1829;SDS011;914;48.118;11.600;2023-05-10T14:08:35;1.50;;;1.03;;
1829;SDS011;914;48.118;11.600;2023-05-10T14:11:01;1.60;;;1.10;;
1829;SDS011;914;48.118;11.600;2023-05-10T14:13:27;1.40;;;1.20;;
1829;SDS011;914;48.118;11.600;2023-05-10T14:15:53;1.40;;;1.20;;
1829;SDS011;914;48.118;11.600;2023-05-10T14:18:19;1.40;;;1.30;;
1829;SDS011;914;48.118;11.600;2023-05-10T14:20:45;1.00;;;1.00;;
1829;SDS011;914;48.118;11.600;2023-05-10T14:23:11;1.93;;;1.30;;
1829;SDS011;914;48.118;11.600;2023-05-10T14:25:37;2.50;;;1.10;;
1829;SDS011;914;48.118;11.600;2023-05-10T14:28:06;1.37;;;1.20;;
1829;SDS011;914;48.118;11.600;2023-05-10T14:30:32;1.30;;;1.20;;
1829;SDS011;914;48.118;11.600;2023-05-10T14:32:59;1.37;;;1.27;;
1829;SDS011;914;48.118;11.600;2023-05-10T14:35:26;4.47;;;1.10;;
1829;SDS011;914;48.118;11.600;2023-05-10T14:37:52;1.00;;;1.00;;
1829;SDS011;914;48.118;11.600;2023-05-10T14:40:18;2.70;;;1.30;;
1829;SDS011;914;48.118;11.600;2023-05-10T14:42:44;2.53;;;1.00;;
1829;SDS011;914;48.118;11.600;2023-05-10T14:45:10;1.50;;;1.00;;
1829;SDS011;914;48.118;11.600;2023-05-10T14:47:37;2.50;;;1.00;;
1829;SDS011;914;48.118;11.600;2023-05-10T14:50:02;1.13;;;1.07;;
1829;SDS011;914;48.118;11.600;2023-05-10T14:52:29;1.30;;;1.00;;
1829;SDS011;914;48.118;11.600;2023-05-10T14:54:54;1.73;;;0.90;;
1829;SDS011;914;48.118;11.600;2023-05-10T14:57:20;1.10;;;1.07;;
1829;SDS011;914;48.118;11.600;2023-05-10T14:59:45;2.30;;;1.00;;
1829;SDS011;914;48.118;11.600;2023-05-10T15:02:11;1.17;;;1.00;;
1829;SDS011;914;48.118;11.600;2023-05-10T15:04:38;1.77;;;0.90;;
1829;SDS011;914;48.118;11.600;2023-05-10T15:07:04;1.00;;;0.93;;
1829;SDS011;914;48.118;11.600;2023-05-10T15:09:31;2.27;;;1.30;;
1829;SDS011;914;48.118;11.600;2023-05-10T15:11:57;3.13;;;1.10;;
1829;SDS011;914;48.118;11.600;2023-05-10T15:14:22;0.90;;;0.90;;
1829;SDS011;914;48.118;11.600;2023-05-10T15:16:48;1.37;;;1.00;;
1829;SDS011;914;48.118;11.600;2023-05-10T15:19:14;1.53;;;1.10;;
1829;SDS011;914;48.118;11.600;2023-05-10T15:21:40;1.00;;;0.90;;
1829;SDS011;914;48.118;11.600;2023-05-10T15:24:08;0.70;;;0.70;;
1829;SDS011;914;48.118;11.600;2023-05-10T15:26:34;1.73;;;1.00;;
1829;SDS011;914;48.118;11.600;2023-05-10T15:29:00;1.93;;;1.20;;
1829;SDS011;914;48.118;11.600;2023-05-10T15:31:26;1.60;;;1.20;;
1829;SDS011;914;48.118;11.600;2023-05-10T15:33:55;1.87;;;1.10;;
1829;SDS011;914;48.118;11.600;2023-05-10T15:36:24;1.60;;;1.10;;
1829;SDS011;914;48.118;11.600;2023-05-10T15:38:49;1.73;;;1.20;;
1829;SDS011;914;48.118;11.600;2023-05-10T15:41:15;0.97;;;0.93;;
1829;SDS011;914;48.118;11.600;2023-05-10T15:43:41;1.30;;;1.17;;
1829;SDS011;914;48.118;11.600;2023-05-10T15:46:06;3.60;;;1.47;;
1829;SDS011;914;48.118;11.600;2023-05-10T15:48:32;2.43;;;1.83;;
1829;SDS011;914;48.118;11.600;2023-05-10T15:50:58;2.33;;;1.33;;
1829;SDS011;914;48.118;11.600;2023-05-10T15:53:23;1.50;;;1.30;;
1829;SDS011;914;48.118;11.600;2023-05-10T15:55:49;1.83;;;1.30;;
1829;SDS011;914;48.118;11.600;2023-05-10T15:58:15;1.77;;;1.20;;